PWSweather.com
Personal Weather Stations
Station Observations
KNCCHINA3
Red Tractor Trail, China Grove, NC 28023

Red Tractor TrailChina Grove, NC 28023

Lat: 35.59751, Lon: -80.60201

Elevation: 800

Station Type: Oregon Scientific WMR 968

http://www.joesweathergarage.com

Latest ConditionsUpdated 1:44:36 AM EST Saturday, Feb 13, 2016
Currently Today's Max Today's Min Today's Average
Temperature 33.8°F1.0°C 36.3°F2.4°C 33.8°F1.0°C 35.2°F1.8°C
Dew Point 19.8°F-6.8°C 22.6°F-5.2°C 19.8°F-6.8°C 21.3°F-5.9°C
Winds 3.7 mph WNW6.0 kmh WNW 7.0 mph WNW11.3 kmh WNW - 5.3 mph 8.5 kmh
Wind Gusts 5.4 mph8.7 kmh 9.8 mph15.8 kmh - -
Humidity 56% 57% 56% 56%
Pressure 30.03 in1016.9 mb 30.03 in1016.9 mb 30.03 in1016.9 mb -
Hour Temp Dew Point Humidity Winds Wind Gusts Pressure Precip Precip Rate Daily Precip Total
01:44 AM 33.8°F1.0°C 19.8°F-6.8°C 56% 3.7 mph WNW6.0 kmh WNW 5.4 mph8.7 kmh 30.03 in1016.9 mb 0.00 in0.0 mm 0.00 in0.0 mm 0.00 in0.0 mm
01:39 AM 33.8°F1.0°C 19.8°F-6.8°C 56% 3.7 mph WNW6.0 kmh WNW 5.4 mph8.7 kmh 30.03 in1016.9 mb 0.00 in0.0 mm 0.00 in0.0 mm 0.00 in0.0 mm
01:34 AM 34.0°F1.1°C 20.0°F-6.7°C 56% 3.0 mph WNW4.8 kmh WNW 5.0 mph8.0 kmh 30.03 in1016.9 mb 0.00 in0.0 mm 0.00 in0.0 mm 0.00 in0.0 mm
01:29 AM 34.3°F1.3°C 20.3°F-6.5°C 56% 3.7 mph W6.0 kmh W 5.0 mph8.0 kmh 30.03 in1016.9 mb 0.00 in0.0 mm 0.00 in0.0 mm 0.00 in0.0 mm
01:24 AM 34.5°F1.4°C 20.5°F-6.4°C 56% 4.4 mph WNW7.1 kmh WNW 6.8 mph10.9 kmh 30.03 in1016.9 mb 0.00 in0.0 mm 0.00 in0.0 mm 0.00 in0.0 mm
01:19 AM 34.9°F1.6°C 20.8°F-6.2°C 56% 4.0 mph NW6.4 kmh NW 8.0 mph12.9 kmh 30.03 in1016.9 mb 0.00 in0.0 mm 0.00 in0.0 mm 0.00 in0.0 mm
01:14 AM 34.9°F1.6°C 20.8°F-6.2°C 56% 4.9 mph NW7.9 kmh NW 8.0 mph12.9 kmh 30.03 in1016.9 mb 0.00 in0.0 mm 0.00 in0.0 mm 0.00 in0.0 mm
01:09 AM 35.1°F1.7°C 21.0°F-6.1°C 56% 4.5 mph NNW7.2 kmh NNW 7.6 mph12.2 kmh 30.03 in1016.9 mb 0.00 in0.0 mm 0.00 in0.0 mm 0.00 in0.0 mm
01:04 AM 35.2°F1.8°C 21.1°F-6.1°C 56% 5.7 mph NW9.2 kmh NW 8.0 mph12.9 kmh 30.03 in1016.9 mb 0.00 in0.0 mm 0.00 in0.0 mm 0.00 in0.0 mm
12:59 AM 35.2°F1.8°C 21.1°F-6.1°C 56% 6.8 mph WNW10.9 kmh WNW 8.0 mph12.9 kmh 30.03 in1016.9 mb 0.00 in0.0 mm 0.00 in0.0 mm 0.00 in0.0 mm
12:54 AM 35.4°F1.9°C 21.3°F-5.9°C 56% 6.1 mph NW9.8 kmh NW 9.8 mph15.8 kmh 30.03 in1016.9 mb 0.00 in0.0 mm 0.00 in0.0 mm 0.00 in0.0 mm
12:49 AM 35.6°F2.0°C 21.5°F-5.8°C 56% 5.7 mph NW9.2 kmh NW 9.8 mph15.8 kmh 30.03 in1016.9 mb 0.00 in0.0 mm 0.00 in0.0 mm 0.00 in0.0 mm
12:44 AM 35.6°F2.0°C 21.5°F-5.8°C 56% 6.5 mph NW10.5 kmh NW 8.6 mph13.8 kmh 30.03 in1016.9 mb 0.00 in0.0 mm 0.00 in0.0 mm 0.00 in0.0 mm
12:39 AM 35.6°F2.0°C 22.0°F-5.6°C 57% 7.0 mph WNW11.3 kmh WNW 8.0 mph12.9 kmh 30.03 in1016.9 mb 0.00 in0.0 mm 0.00 in0.0 mm 0.00 in0.0 mm
12:34 AM 35.6°F2.0°C 22.0°F-5.6°C 57% 5.8 mph WNW9.3 kmh WNW 8.0 mph12.9 kmh 30.03 in1016.9 mb 0.00 in0.0 mm 0.00 in0.0 mm 0.00 in0.0 mm
12:29 AM 35.8°F2.1°C 22.2°F-5.4°C 57% 6.3 mph WNW10.1 kmh WNW 8.6 mph13.8 kmh 30.03 in1016.9 mb 0.00 in0.0 mm 0.00 in0.0 mm 0.00 in0.0 mm
12:24 AM 35.8°F2.1°C 22.2°F-5.4°C 57% 6.8 mph WNW10.9 kmh WNW 8.6 mph13.8 kmh 30.03 in1016.9 mb 0.00 in0.0 mm 0.00 in0.0 mm 0.00 in0.0 mm
12:18 AM 35.8°F2.1°C 22.2°F-5.4°C 57% 6.3 mph WNW10.1 kmh WNW 7.2 mph11.6 kmh 30.03 in1016.9 mb 0.00 in0.0 mm 0.00 in0.0 mm 0.00 in0.0 mm
12:13 AM 36.0°F2.2°C 22.3°F-5.4°C 57% 5.6 mph NW9.0 kmh NW 7.6 mph12.2 kmh 30.03 in1016.9 mb 0.00 in0.0 mm 0.00 in0.0 mm 0.00 in0.0 mm
12:08 AM 36.1°F2.3°C 22.4°F-5.3°C 57% 5.8 mph WNW9.3 kmh WNW 7.6 mph12.2 kmh 30.03 in1016.9 mb 0.00 in0.0 mm 0.00 in0.0 mm 0.00 in0.0 mm
12:03 AM 36.3°F2.4°C 22.6°F-5.2°C 57% 6.0 mph NW9.7 kmh NW 8.6 mph13.8 kmh 30.03 in1016.9 mb 0.00 in0.0 mm 0.00 in0.0 mm 0.00 in0.0 mm